createdAt,value
2022-08-28T00:01:22.583Z,95872.13
2022-08-28T00:03:52.045Z,95873.72
2022-08-28T00:06:23.055Z,95879.94
2022-08-28T00:08:53.917Z,95875.94
2022-08-28T00:11:22.703Z,95871.63
2022-08-28T00:13:54.412Z,95874.47
2022-08-28T00:16:26.595Z,95872.06
2022-08-28T00:18:57.475Z,95869.66
2022-08-28T00:21:26.055Z,95866.97
2022-08-28T00:23:56.864Z,95869.66
2022-08-28T00:26:39.030Z,95872.69
2022-08-28T00:29:08.446Z,95871.69
2022-08-28T00:31:38.560Z,95867.41
2022-08-28T00:34:09.298Z,95868.22
2022-08-28T00:36:37.582Z,95872.47
2022-08-28T00:39:06.439Z,95875.69
2022-08-28T00:41:35.683Z,95869.63
2022-08-28T00:44:11.191Z,95876.63
2022-08-28T00:46:40.333Z,95862.91
2022-08-28T00:49:10.447Z,95864.53
2022-08-28T00:51:57.808Z,95870.41
2022-08-28T00:54:28.618Z,95870.41
2022-08-28T00:56:58.332Z,95872.81
2022-08-28T00:59:27.212Z,95868.81
2022-08-28T01:01:56.352Z,95865.63
2022-08-28T01:04:27.002Z,95866.41
2022-08-28T01:06:58.348Z,95864.81
2022-08-28T01:09:29.367Z,95869.13
2022-08-28T01:12:04.819Z,95865.31
2022-08-28T01:14:34.010Z,95867.22
2022-08-28T01:17:02.460Z,95868.13
2022-08-28T01:19:33.370Z,95866.56
2022-08-28T01:22:07.284Z,95873.06
2022-08-28T01:24:38.210Z,95869.88
2022-08-28T01:27:06.691Z,95862.66
2022-08-28T01:29:34.845Z,95869.50
2022-08-28T01:32:03.427Z,95870.41
2022-08-28T01:34:32.317Z,95873.13
2022-08-28T01:37:00.475Z,95878.72
2022-08-28T01:39:31.745Z,95873.31
2022-08-28T01:42:01.514Z,95877.72
2022-08-28T01:44:29.890Z,95881.22
2022-08-28T01:46:58.835Z,95883.31
2022-08-28T01:49:29.442Z,95877.72
2022-08-28T01:51:59.251Z,95880.91
2022-08-28T01:54:28.830Z,95881.22
2022-08-28T01:56:56.950Z,95879.91
2022-08-28T01:59:26.343Z,95883.44
2022-08-28T02:01:55.289Z,95878.81
2022-08-28T02:04:31.963Z,95875.63
2022-08-28T02:07:00.986Z,95881.81
2022-08-28T02:09:29.468Z,95882.63
2022-08-28T02:11:57.752Z,95884.06
2022-08-28T02:14:27.715Z,95890.84
2022-08-28T02:16:56.331Z,95896.53
2022-08-28T02:19:24.614Z,95888.94
2022-08-28T02:21:52.981Z,95897.34
2022-08-28T02:24:21.089Z,95893.22
2022-08-28T02:26:49.216Z,95895.13
2022-08-28T02:29:17.628Z,95897.63
2022-08-28T02:31:47.384Z,95887.13
2022-08-28T02:34:15.464Z,95898.25
2022-08-28T02:36:43.867Z,95898.75
2022-08-28T02:39:12.094Z,95900.94
2022-08-28T02:41:40.329Z,95901.75
2022-08-28T02:44:08.699Z,95897.28
2022-08-28T02:46:37.129Z,95897.88
2022-08-28T02:49:06.764Z,95888.16
2022-08-28T02:51:35.548Z,95899.59
2022-08-28T02:54:05.579Z,95893.69
2022-08-28T02:56:34.397Z,95894.59
2022-08-28T02:59:02.705Z,95895.38
2022-08-28T03:01:30.832Z,95895.22
2022-08-28T03:03:59.231Z,95894.72
2022-08-28T03:06:30.889Z,95887.81
2022-08-28T03:08:59.911Z,95890.84
2022-08-28T03:11:28.229Z,95892.75
2022-08-28T03:13:58.447Z,95890.94
2022-08-28T03:16:27.900Z,95896.63
2022-08-28T03:18:56.015Z,95893.25
2022-08-28T03:21:25.470Z,95888.94
2022-08-28T03:23:55.195Z,95892.53
2022-08-28T03:26:24.563Z,95898.06
2022-08-28T03:28:54.184Z,95896.47
2022-08-28T03:31:25.539Z,95897.84
2022-08-28T03:33:54.003Z,95901.47
2022-08-28T03:36:23.047Z,95902.28
2022-08-28T03:38:51.386Z,95900.09
2022-08-28T03:41:22.037Z,95901.19
2022-08-28T03:43:50.431Z,95911.47
2022-08-28T03:46:24.276Z,95904.09
2022-08-28T03:48:53.202Z,95906.16
2022-08-28T03:51:29.710Z,95903.78
2022-08-28T03:53:58.959Z,95907.88
2022-08-28T03:56:33.429Z,95902.38
2022-08-28T03:59:02.959Z,95909.28
2022-08-28T04:01:33.550Z,95911.38
2022-08-28T04:04:02.091Z,95904.09
2022-08-28T04:06:31.434Z,95906.16
2022-08-28T04:09:02.395Z,95909.19
2022-08-28T04:11:34.235Z,95905.47
2022-08-28T04:14:03.973Z,95904.88
2022-08-28T04:16:32.089Z,95914.06
2022-08-28T04:19:00.775Z,95917.06
2022-08-28T04:21:31.674Z,95914.88
2022-08-28T04:24:09.035Z,95918.56
2022-08-28T04:26:39.108Z,95917.66
2022-08-28T04:29:08.825Z,95918.16
2022-08-28T04:31:37.960Z,95920.06
2022-08-28T04:34:08.702Z,95917.97
2022-08-28T04:36:37.058Z,95919.06
2022-08-28T04:39:08.579Z,95926.25
2022-08-28T04:41:39.165Z,95925.66
2022-08-28T04:44:07.256Z,95924.25
2022-08-28T04:46:35.554Z,95924.25
2022-08-28T04:49:04.434Z,95928.88
2022-08-28T04:51:38.848Z,95926.25
2022-08-28T04:54:10.849Z,95928.25
2022-08-28T04:56:40.913Z,95930.84
2022-08-28T04:59:09.268Z,95928.13
2022-08-28T05:01:37.373Z,95929.06
2022-08-28T05:04:05.932Z,95932.56
2022-08-28T05:06:34.371Z,95930.06
2022-08-28T05:09:03.371Z,95943.25
2022-08-28T05:11:33.186Z,95938.63
2022-08-28T05:14:11.584Z,95944.47
2022-08-28T05:16:44.725Z,95947.06
2022-08-28T05:19:13.176Z,95951.56
2022-08-28T05:21:42.638Z,95946.84
2022-08-28T05:24:11.003Z,95949.25
2022-08-28T05:26:42.224Z,95951.56
2022-08-28T05:29:12.947Z,95955.16
2022-08-28T05:31:42.157Z,95958.06
2022-08-28T05:34:11.054Z,95951.25
2022-08-28T05:36:39.683Z,95959.84
2022-08-28T05:39:10.155Z,95960.94
2022-08-28T05:41:38.402Z,95976.16
2022-08-28T05:44:08.441Z,95966.44
2022-08-28T05:46:42.426Z,95971.66
2022-08-28T05:49:10.712Z,95964.94
2022-08-28T05:51:40.893Z,95972.94
2022-08-28T05:54:09.192Z,95975.94
2022-08-28T05:56:38.634Z,95978.53
2022-08-28T05:59:07.362Z,95980.53
2022-08-28T06:01:37.151Z,95973.16
2022-08-28T06:04:08.044Z,95981.03
2022-08-28T06:06:38.304Z,95976.25
2022-08-28T06:09:08.021Z,95978.53
2022-08-28T06:11:35.997Z,95985.16
2022-08-28T06:14:06.537Z,95982.59
2022-08-28T06:16:35.539Z,95986.28
2022-08-28T06:19:03.645Z,95993.41
2022-08-28T06:21:33.504Z,95989.31
2022-08-28T06:24:01.481Z,95991.53
2022-08-28T06:26:29.539Z,95999.34
2022-08-28T06:29:00.754Z,96001.91
2022-08-28T06:31:33.029Z,96003.72
2022-08-28T06:34:01.488Z,96000.53
2022-08-28T06:36:35.159Z,95996.94
2022-08-28T06:39:03.965Z,96002.59
2022-08-28T06:41:34.136Z,95999.63
2022-08-28T06:44:02.987Z,96004.88
2022-08-28T06:46:33.814Z,95998.00
2022-08-28T06:49:05.092Z,96010.50
2022-08-28T06:51:35.728Z,96011.94
2022-08-28T06:54:04.641Z,96007.25
2022-08-28T06:56:33.462Z,96011.22
2022-08-28T06:59:01.884Z,96022.13
2022-08-28T07:01:31.587Z,96014.84
2022-08-28T07:04:01.010Z,96023.25
2022-08-28T07:06:32.810Z,96019.16
2022-08-28T07:09:06.264Z,96021.34
2022-08-28T07:11:35.260Z,96028.66
2022-08-28T07:14:03.360Z,96025.84
2022-08-28T07:16:32.358Z,96029.34
2022-08-28T07:19:03.640Z,96027.75
2022-08-28T07:21:32.698Z,96030.66
2022-08-28T07:24:10.464Z,96023.97
2022-08-28T07:26:40.975Z,96031.75
2022-08-28T07:29:15.133Z,96036.66
2022-08-28T07:31:52.060Z,96029.75
2022-08-28T07:34:21.791Z,96029.25
2022-08-28T07:36:56.346Z,96027.63
2022-08-28T07:39:26.006Z,96027.13
2022-08-28T07:41:54.075Z,96032.53
2022-08-28T07:44:40.287Z,96031.97
2022-08-28T07:47:11.569Z,96029.28
2022-08-28T07:49:39.825Z,96033.06
2022-08-28T07:52:08.138Z,96034.25
2022-08-28T07:54:40.326Z,96036.75
2022-08-28T07:57:09.705Z,96043.53
2022-08-28T07:59:38.003Z,96036.38
2022-08-28T08:02:07.214Z,96045.19
2022-08-28T08:04:35.764Z,96037.25
2022-08-28T08:07:03.958Z,96037.63
2022-08-28T08:09:32.292Z,96042.78
2022-08-28T08:12:01.927Z,96047.16
2022-08-28T08:14:29.915Z,96060.38
2022-08-28T08:17:02.772Z,96058.16
2022-08-28T08:19:35.818Z,96049.25
2022-08-28T08:22:08.372Z,96045.03
2022-08-28T08:24:37.146Z,96054.03
2022-08-28T08:27:07.321Z,96051.44
2022-08-28T08:29:38.290Z,96054.75
2022-08-28T08:32:08.431Z,96053.53
2022-08-28T08:34:38.725Z,96056.00
2022-08-28T08:37:09.109Z,96056.19
2022-08-28T08:39:37.250Z,96053.19
2022-08-28T08:42:09.053Z,96059.09
2022-08-28T08:44:41.149Z,96066.31
2022-08-28T08:47:14.775Z,96061.13
2022-08-28T08:49:48.993Z,96068.91
2022-08-28T08:52:29.155Z,96071.47
2022-08-28T08:55:07.595Z,96064.75
2022-08-28T08:57:38.155Z,96073.53
2022-08-28T09:00:12.297Z,96067.00
2022-08-28T09:02:46.332Z,96066.75
2022-08-28T09:05:16.681Z,96069.75
2022-08-28T09:07:53.184Z,96068.19
2022-08-28T09:10:21.951Z,96073.94
2022-08-28T09:12:54.479Z,96073.69
2022-08-28T09:15:27.355Z,96070.03
2022-08-28T09:17:57.412Z,96068.63
2022-08-28T09:20:33.293Z,96074.31
2022-08-28T09:23:01.962Z,96074.94
2022-08-28T09:25:52.281Z,96086.47
2022-08-28T09:28:25.089Z,96083.88
2022-08-28T09:30:59.483Z,96087.59
2022-08-28T09:33:32.607Z,96089.00
2022-08-28T09:36:24.378Z,96089.00
2022-08-28T09:39:13.601Z,96102.03
2022-08-28T09:42:05.377Z,96095.53
2022-08-28T09:44:34.913Z,96099.88
2022-08-28T09:47:04.238Z,96102.13
2022-08-28T09:49:32.592Z,96098.94
2022-08-28T09:52:04.050Z,96107.81
2022-08-28T09:54:33.955Z,96098.75
2022-08-28T09:57:03.489Z,96098.69
2022-08-28T09:59:33.117Z,96096.94
2022-08-28T10:02:15.024Z,96099.53
2022-08-28T10:04:50.074Z,96104.16
2022-08-28T10:07:24.483Z,96103.84
2022-08-28T10:09:56.106Z,96101.16
2022-08-28T10:12:33.527Z,96104.00
2022-08-28T10:15:05.993Z,96117.59
2022-08-28T10:17:41.280Z,96114.59
2022-08-28T10:20:15.661Z,96125.88
2022-08-28T10:22:48.409Z,96122.69
2022-08-28T10:25:23.811Z,96117.56
2022-08-28T10:28:07.270Z,96122.63
2022-08-28T10:30:37.647Z,96124.34
2022-08-28T10:33:21.906Z,96108.81
2022-08-28T10:35:54.717Z,96120.91
2022-08-28T10:38:28.905Z,96108.91
2022-08-28T10:40:59.096Z,96115.53
2022-08-28T10:43:30.761Z,96112.97
2022-08-28T10:46:01.727Z,96108.97
2022-08-28T10:48:45.196Z,96123.63
2022-08-28T10:51:18.778Z,96109.78
2022-08-28T10:54:04.587Z,96108.66
2022-08-28T10:56:37.230Z,96112.34
2022-08-28T10:59:05.447Z,96129.09
2022-08-28T11:01:35.398Z,96121.81
2022-08-28T11:04:06.990Z,96119.91
2022-08-28T11:06:37.253Z,96120.84
2022-08-28T11:09:24.887Z,96127.06
2022-08-28T11:11:56.447Z,96127.38
2022-08-28T11:14:32.556Z,96133.72
2022-08-28T11:17:02.785Z,96123.69
2022-08-28T11:20:12.208Z,96132.16
2022-08-28T11:22:45.858Z,96135.84
2022-08-28T11:25:17.346Z,96141.00
2022-08-28T11:28:14.794Z,96132.03
2022-08-28T11:30:46.058Z,96137.63
2022-08-28T11:33:36.015Z,96138.31
2022-08-28T11:36:04.382Z,96135.78
2022-08-28T11:39:12.433Z,96135.78
2022-08-28T11:42:16.942Z,96124.50
2022-08-28T11:44:46.521Z,96133.22
2022-08-28T11:47:52.175Z,96129.25
2022-08-28T11:50:26.586Z,96139.97
2022-08-28T11:53:40.973Z,96139.19
2022-08-28T11:56:44.120Z,96128.22
2022-08-28T11:59:23.665Z,96125.69
2022-08-28T12:01:54.971Z,96121.88
2022-08-28T12:04:41.116Z,96119.03
2022-08-28T12:07:24.211Z,96120.47
2022-08-28T12:09:56.596Z,96127.00
2022-08-28T12:12:55.436Z,96127.03
2022-08-28T12:15:40.459Z,96127.19
2022-08-28T12:18:15.880Z,96122.56
2022-08-28T12:21:01.647Z,96117.03
2022-08-28T12:23:38.404Z,96122.28
2022-08-28T12:26:09.252Z,96114.13
2022-08-28T12:28:44.897Z,96119.25
2022-08-28T12:31:46.367Z,96121.94
2022-08-28T12:34:16.789Z,96125.63
2022-08-28T12:36:47.910Z,96120.22
2022-08-28T12:39:19.773Z,96124.97
2022-08-28T12:41:47.929Z,96121.16
2022-08-28T12:44:18.685Z,96117.94
2022-08-28T12:46:49.182Z,96124.97
2022-08-28T12:49:33.942Z,96117.59
2022-08-28T12:52:10.704Z,96116.69
2022-08-28T12:54:38.870Z,96118.28
2022-08-28T12:57:08.283Z,96112.69
2022-08-28T12:59:40.048Z,96118.72
2022-08-28T13:02:09.464Z,96115.41
2022-08-28T13:04:38.652Z,96113.97
2022-08-28T13:07:10.841Z,96115.25
2022-08-28T13:09:39.673Z,96112.03
2022-08-28T13:12:08.431Z,96117.00
2022-08-28T13:14:43.221Z,96115.09
2022-08-28T13:17:12.017Z,96114.28
2022-08-28T13:19:40.351Z,96121.00
2022-08-28T13:22:09.870Z,96113.31
2022-08-28T13:24:40.975Z,96113.19
2022-08-28T13:27:22.690Z,96112.84
2022-08-28T13:29:59.999Z,96109.97
2022-08-28T13:32:32.581Z,96110.28
2022-08-28T13:35:10.192Z,96113.31
2022-08-28T13:37:45.263Z,96102.63
2022-08-28T13:40:38.167Z,96100.25
2022-08-28T13:43:03.966Z,96100.88
2022-08-28T13:45:40.101Z,96096.25
2022-08-28T13:48:11.614Z,96104.56
2022-08-28T13:50:41.947Z,96099.28
2022-08-28T13:53:13.636Z,96101.84
2022-08-28T13:55:43.363Z,96094.47
2022-08-28T13:58:12.855Z,96102.47
2022-08-28T14:00:44.014Z,96112.19
2022-08-28T14:03:30.183Z,96105.63
2022-08-28T14:06:02.788Z,96104.88
2022-08-28T14:08:31.358Z,96115.41
2022-08-28T14:11:00.681Z,96101.69
2022-08-28T14:13:32.172Z,96112.22
2022-08-28T14:16:04.635Z,96112.84
2022-08-28T14:18:33.247Z,96108.84
2022-08-28T14:21:02.677Z,96107.09
2022-08-28T14:23:31.497Z,96108.72
2022-08-28T14:26:05.056Z,96107.59
2022-08-28T14:28:33.876Z,96108.53
2022-08-28T14:31:14.229Z,96111.09
2022-08-28T14:33:45.193Z,96107.09
2022-08-28T14:36:18.537Z,96105.69
2022-08-28T14:38:46.739Z,96103.09
2022-08-28T14:41:17.183Z,96108.53
2022-08-28T14:43:45.755Z,96098.63
2022-08-28T14:46:18.355Z,96101.34
2022-08-28T14:48:48.940Z,96094.03
2022-08-28T14:51:19.348Z,96094.34
2022-08-28T14:53:48.403Z,96102.59
2022-08-28T14:56:16.646Z,96093.81
2022-08-28T14:58:46.426Z,96092.91
2022-08-28T15:01:24.806Z,96091.44
2022-08-28T15:04:02.334Z,96094.59
2022-08-28T15:06:32.472Z,96095.25
2022-08-28T15:09:01.678Z,96094.91
2022-08-28T15:11:31.339Z,96090.75
2022-08-28T15:13:59.606Z,96090.56
2022-08-28T15:16:31.731Z,96092.78
2022-08-28T15:19:02.343Z,96095.47
2022-08-28T15:21:33.321Z,96099.81
2022-08-28T15:24:02.128Z,96092.78
2022-08-28T15:26:33.048Z,96095.97
2022-08-28T15:29:03.359Z,96094.03
2022-08-28T15:31:34.948Z,96091.16
2022-08-28T15:34:05.323Z,96087.34
2022-08-28T15:36:34.774Z,96090.88
2022-08-28T15:39:21.159Z,96089.88
2022-08-28T15:41:50.038Z,96090.22
2022-08-28T15:44:20.300Z,96091.34
2022-08-28T15:46:55.096Z,96088.81
2022-08-28T15:49:26.031Z,96085.00
2022-08-28T15:51:57.532Z,96088.16
2022-08-28T15:54:27.693Z,96091.19
2022-08-28T15:56:55.820Z,96085.31
2022-08-28T15:59:24.138Z,96084.06
2022-08-28T16:02:15.208Z,96088.03
2022-08-28T16:04:44.403Z,96087.59
2022-08-28T16:07:12.959Z,96085.34
2022-08-28T16:09:41.585Z,96094.78
2022-08-28T16:12:10.549Z,96081.38
2022-08-28T16:14:38.657Z,96090.97
2022-08-28T16:17:10.975Z,96087.28
2022-08-28T16:19:41.159Z,96079.31
2022-08-28T16:22:10.097Z,96079.94
2022-08-28T16:24:38.304Z,96075.81
2022-08-28T16:27:09.534Z,96079.78
2022-08-28T16:29:40.811Z,96070.03
2022-08-28T16:32:11.682Z,96067.19
2022-08-28T16:34:44.605Z,96069.22
2022-08-28T16:37:14.300Z,96067.00
2022-08-28T16:39:49.189Z,96070.19
2022-08-28T16:42:18.567Z,96071.44
2022-08-28T16:44:46.844Z,96069.69
2022-08-28T16:47:15.840Z,96074.97
2022-08-28T16:49:45.524Z,96067.94
2022-08-28T16:52:13.677Z,96071.91
2022-08-28T16:54:48.547Z,96072.53
2022-08-28T16:57:17.704Z,96071.59
2022-08-28T16:59:45.876Z,96076.03
2022-08-28T17:02:14.920Z,96075.25
2022-08-28T17:04:43.788Z,96068.06
2022-08-28T17:07:15.821Z,96066.47
2022-08-28T17:09:44.532Z,96064.88
2022-08-28T17:12:12.967Z,96069.63
2022-08-28T17:14:51.730Z,96072.50
2022-08-28T17:17:25.831Z,96073.78
2022-08-28T17:19:56.158Z,96083.31
2022-08-28T17:22:32.030Z,96071.56
2022-08-28T17:25:01.568Z,96076.44
2022-08-28T17:27:31.152Z,96076.25
2022-08-28T17:29:59.968Z,96077.00
2022-08-28T17:32:28.307Z,96073.47
2022-08-28T17:34:56.703Z,96077.88
2022-08-28T17:37:26.848Z,96077.03
2022-08-28T17:39:55.953Z,96084.63
2022-08-28T17:42:24.191Z,96089.47
2022-08-28T17:44:52.331Z,96088.41
2022-08-28T17:47:21.768Z,96091.53
2022-08-28T17:49:56.063Z,96095.59
2022-08-28T17:52:25.977Z,96095.34
2022-08-28T17:54:54.385Z,96093.94
2022-08-28T17:57:24.175Z,96088.75
2022-08-28T17:59:52.288Z,96095.69
2022-08-28T18:02:21.485Z,96090.81
2022-08-28T18:04:51.206Z,96089.63
2022-08-28T18:07:19.592Z,96092.69
2022-08-28T18:09:51.110Z,96101.81
2022-08-28T18:12:21.940Z,96100.09
2022-08-28T18:14:50.760Z,96102.38
2022-08-28T18:17:19.522Z,96106.59
2022-08-28T18:19:48.442Z,96103.38
2022-08-28T18:22:17.876Z,96104.59
2022-08-28T18:24:52.661Z,96097.19
2022-08-28T18:27:21.469Z,96098.06
2022-08-28T18:29:49.792Z,96106.06
2022-08-28T18:32:18.985Z,96107.53
2022-08-28T18:34:47.133Z,96103.31
2022-08-28T18:37:16.442Z,96111.00
2022-08-28T18:39:45.470Z,96113.50
2022-08-28T18:42:16.119Z,96114.47
2022-08-28T18:44:44.583Z,96120.22
2022-08-28T18:47:13.569Z,96124.91
2022-08-28T18:49:43.056Z,96129.09
2022-08-28T18:52:11.223Z,96129.91
2022-08-28T18:54:39.999Z,96128.13
2022-08-28T18:57:10.926Z,96136.78
2022-08-28T18:59:43.042Z,96134.66
2022-08-28T19:02:12.909Z,96141.22
2022-08-28T19:04:43.024Z,96144.28
2022-08-28T19:07:13.716Z,96147.03
2022-08-28T19:09:42.252Z,96142.53
2022-08-28T19:12:11.206Z,96146.09
2022-08-28T19:14:42.806Z,96149.16
2022-08-28T19:17:11.012Z,96145.94
2022-08-28T19:19:40.010Z,96151.63
2022-08-28T19:22:10.651Z,96158.16
2022-08-28T19:24:39.545Z,96156.63
2022-08-28T19:27:08.098Z,96156.41
2022-08-28T19:29:36.604Z,96159.94
2022-08-28T19:32:06.779Z,96161.63
2022-08-28T19:34:35.471Z,96163.00
2022-08-28T19:37:07.010Z,96164.16
2022-08-28T19:39:35.115Z,96167.19
2022-08-28T19:42:04.130Z,96168.84
2022-08-28T19:44:35.334Z,96172.09
2022-08-28T19:47:05.222Z,96171.88
2022-08-28T19:49:33.365Z,96169.25
2022-08-28T19:52:03.081Z,96174.97
2022-08-28T19:54:32.962Z,96165.81
2022-08-28T19:57:01.532Z,96178.75
2022-08-28T19:59:30.957Z,96179.84
2022-08-28T20:01:59.371Z,96187.69
2022-08-28T20:04:28.813Z,96188.53
2022-08-28T20:06:57.269Z,96189.09
2022-08-28T20:09:25.348Z,96184.00
2022-08-28T20:11:53.373Z,96189.44
2022-08-28T20:14:21.462Z,96187.28
2022-08-28T20:16:51.806Z,96193.53
2022-08-28T20:19:20.221Z,96187.63
2022-08-28T20:21:51.192Z,96180.91
2022-08-28T20:24:21.847Z,96182.31
2022-08-28T20:26:51.150Z,96190.41
2022-08-28T20:29:21.245Z,96185.88
2022-08-28T20:31:49.618Z,96185.34
2022-08-28T20:34:19.213Z,96188.88
2022-08-28T20:36:49.541Z,96194.03
2022-08-28T20:39:17.903Z,96198.59
2022-08-28T20:41:54.568Z,96192.44
2022-08-28T20:44:23.024Z,96204.84
2022-08-28T20:46:54.690Z,96198.41
2022-08-28T20:49:24.435Z,96200.56
2022-08-28T20:51:59.146Z,96206.25
2022-08-28T20:54:29.459Z,96191.19
2022-08-28T20:56:58.215Z,96197.13
2022-08-28T20:59:27.807Z,96199.06
2022-08-28T21:02:05.324Z,96200.41
2022-08-28T21:04:35.633Z,96204.72
2022-08-28T21:07:05.430Z,96210.69
2022-08-28T21:10:04.007Z,96204.25
2022-08-28T21:12:22.468Z,96211.50
2022-08-28T21:14:53.293Z,96211.78
2022-08-28T21:17:29.424Z,96214.72
2022-08-28T21:20:01.102Z,96214.78
2022-08-28T21:22:31.790Z,96227.69
2022-08-28T21:25:03.182Z,96219.88
2022-08-28T21:27:31.848Z,96219.34
2022-08-28T21:30:01.658Z,96222.34
2022-08-28T21:32:30.787Z,96223.41
2022-08-28T21:35:00.647Z,96225.56
2022-08-28T21:37:28.844Z,96224.50
2022-08-28T21:39:59.633Z,96228.56
2022-08-28T21:42:28.777Z,96235.25
2022-08-28T21:44:58.486Z,96233.91
2022-08-28T21:47:28.330Z,96236.06
2022-08-28T21:49:57.308Z,96229.88
2022-08-28T21:52:29.096Z,96231.28
2022-08-28T21:55:05.039Z,96232.91
2022-08-28T21:57:34.263Z,96234.25
2022-08-28T22:00:04.648Z,96247.16
2022-08-28T22:02:36.097Z,96256.28
2022-08-28T22:05:04.763Z,96254.66
2022-08-28T22:07:35.161Z,96259.22
2022-08-28T22:10:09.391Z,96257.91
2022-08-28T22:12:37.722Z,96260.59
2022-08-28T22:15:06.952Z,96260.38
2022-08-28T22:17:36.280Z,96255.53
2022-08-28T22:20:06.155Z,96256.34
2022-08-28T22:22:53.087Z,96256.88
2022-08-28T22:25:30.155Z,96251.22
2022-08-28T22:28:01.465Z,96250.97
2022-08-28T22:30:33.608Z,96260.38
2022-08-28T22:33:03.508Z,96259.31
2022-08-28T22:35:32.158Z,96259.31
2022-08-28T22:38:00.872Z,96257.44
2022-08-28T22:40:30.431Z,96257.16
2022-08-28T22:42:59.825Z,96255.28
2022-08-28T22:45:29.363Z,96254.75
2022-08-28T22:47:58.334Z,96266.84
2022-08-28T22:50:27.047Z,96255.28
2022-08-28T22:52:56.531Z,96260.41
2022-08-28T22:55:27.113Z,96261.75
2022-08-28T22:57:56.613Z,96266.84
2022-08-28T23:00:26.872Z,96267.91
2022-08-28T23:02:55.800Z,96267.13
2022-08-28T23:05:24.881Z,96267.38
2022-08-28T23:07:55.859Z,96263.66
2022-08-28T23:10:36.931Z,96267.41
2022-08-28T23:13:15.301Z,96266.84
2022-08-28T23:15:46.050Z,96250.75
2022-08-28T23:18:14.475Z,96259.34
2022-08-28T23:20:43.655Z,96265.78
2022-08-28T23:23:12.236Z,96261.47
2022-08-28T23:25:44.666Z,96263.09
2022-08-28T23:28:15.686Z,96269.00
2022-08-28T23:30:48.475Z,96265.53
2022-08-28T23:33:23.693Z,96272.75
2022-08-28T23:35:54.370Z,96267.41
2022-08-28T23:38:22.431Z,96273.84
2022-08-28T23:40:53.649Z,96270.59
2022-08-28T23:43:25.349Z,96277.59
2022-08-28T23:45:54.683Z,96281.06
2022-08-28T23:48:25.978Z,96280.50
2022-08-28T23:50:55.755Z,96280.50
2022-08-28T23:53:24.092Z,96280.78
2022-08-28T23:55:53.878Z,96278.09
2022-08-28T23:58:25.487Z,96278.91
